Latest Weather Observations for Cobar Airport

IDN60801

Issued at 12:35 pm EDT Friday 28 November 2014 (issued every 30 minutes, with the page automatically refreshed every 10 minutes)

About weather observations | Map of weather stations | Latest weather observations for NSW | Other Formats
Station Details ID: 048237 Name: COBAR AIRPORT AWS Lat: -31.54 Lon: 145.80 Height: 218.0 m
Data from the previous 72 hours. | See also: Recent months for locations in New South Wales
Date/Time
EDT
Temp
°C
App
Temp
°C
Dew
Point
Rel
Hum
%
Delta-T
°C
Wind Press
QNH
hPa
Press
MSL
hPa
Rain
since 9 am
mm
Dir
 
Spd
km/h
Gust
km/h
Spd
kts
Gust
kts
28/12:30pm 30.6 27.8 11.5 30 11.2 NE 17 24 9 13 1017.0 1016.1 0.0
28/12:00pm 29.9 26.9 11.9 33 10.6 E 19 28 10 15 1017.3 1016.4 0.0
28/11:30am 28.4 25.2 11.9 36 9.6 ENE 20 30 11 16 1017.7 1016.8 0.0
28/11:00am 27.3 24.2 11.7 37 9.0 ENE 19 28 10 15 1018.0 1017.1 0.0
28/10:30am 26.8 23.5 11.7 39 8.7 NE 20 32 11 17 1018.1 1017.2 0.0
28/10:00am 25.9 22.3 12.0 42 8.0 NE 22 30 12 16 1018.2 1017.3 0.0
28/09:30am 25.1 21.6 12.3 45 7.4 ENE 22 32 12 17 1018.3 1017.4 0.0
28/09:00am 24.0 20.1 12.0 47 6.9 ENE 24 35 13 19 1018.2 1017.3 0.0
28/08:30am 22.8 18.3 11.5 49 6.4 ENE 26 39 14 21 1018.2 1017.3 0.0
28/08:00am 22.1 18.5 11.8 52 5.8 E 22 33 12 18 1017.9 1017.0 0.0
28/07:30am 21.0 17.8 11.9 56 5.1 E 20 35 11 19 1017.7 1016.8 0.0
28/07:00am 20.1 17.0 11.6 58 4.7 E 19 26 10 14 1017.4 1016.5 0.0
28/06:30am 19.6 16.5 11.6 60 4.5 E 19 26 10 14 1017.2 1016.3 0.0
28/06:00am 19.7 16.9 11.5 59 4.6 E 17 26 9 14 1016.9 1016.0 0.0
28/05:30am 20.0 17.2 11.2 57 4.9 E 17 22 9 12 1016.7 1015.8 0.0
28/05:00am 20.6 17.3 11.0 54 5.3 E 19 30 10 16 1016.4 1015.5 0.0
28/04:30am 20.9 17.7 10.1 50 5.9 E 17 22 9 12 1016.2 1015.2 0.0
28/04:00am 21.2 17.7 7.1 40 7.3 E 15 19 8 10 1016.2 1015.2 0.0
28/03:30am 21.8 18.1 6.5 37 7.8 E 15 22 8 12 1016.3 1015.3 0.0
28/03:00am 21.1 17.6 1.4 27 9.1 SE 9 13 5 7 1016.2 1015.2 0.0
28/02:30am 21.7 17.8 1.4 26 9.5 SE 11 13 6 7 1016.3 1015.3 0.0
28/02:00am 21.9 17.7 1.5 26 9.5 SSE 13 19 7 10 1016.6 1015.7 0.0
28/01:30am 21.9 18.1 1.5 26 9.5 S 11 13 6 7 1016.2 1015.2 0.0
28/01:00am 22.9 19.1 1.8 25 10.0 S 11 15 6 8 1016.5 1015.6 0.0
28/12:30am 23.9 19.3 1.5 23 10.6 S 15 17 8 9 1016.7 1015.8 0.0
28/12:00am 24.5 20.4 2.0 23 10.8 S 13 19 7 10 1016.8 1015.9 0.0
 
Date/Time
EDT
Temp
°C
App
Temp
°C
Dew
Point
Rel
Hum
%
Delta-T
°C
Wind Press
QNH
hPa
Press
MSL
hPa
Rain
since 9 am
mm
Dir
 
Spd
km/h
Gust
km/h
Spd
kts
Gust
kts
27/11:30pm 25.2 21.1 2.0 22 11.2 S 13 19 7 10 1016.9 1016.0 0.0
27/11:00pm 25.6 21.1 2.3 22 11.3 S 15 20 8 11 1016.8 1015.9 0.0
27/10:30pm 26.2 21.4 2.8 22 11.6 S 17 22 9 12 1016.7 1015.8 0.0
27/10:00pm 26.5 22.5 3.1 22 11.6 S 13 19 7 10 1016.6 1015.7 0.0
27/09:30pm 26.3 22.4 3.5 23 11.4 S 13 15 7 8 1016.4 1015.5 0.0
27/09:00pm 27.1 23.5 2.9 21 12.0 S 11 13 6 7 1016.1 1015.1 0.0
27/08:30pm 27.8 23.9 1.3 18 12.9 S 11 13 6 7 1016.0 1015.0 0.0
27/08:00pm 29.8 25.5 1.3 16 14.0 S 13 19 7 10 1015.7 1014.7 0.0
27/07:30pm 30.8 26.1 1.2 15 14.7 S 15 22 8 12 1015.6 1014.6 0.0
27/07:00pm 31.3 25.2 0.6 14 15.1 S 22 28 12 15 1015.4 1014.4 0.0
27/06:30pm 31.7 25.9 -0.1 13 15.5 SSW 20 26 11 14 1015.2 1014.2 0.0
27/06:00pm 31.9 26.3 0.1 13 15.6 S 19 28 10 15 1015.1 1014.1 0.0
27/05:30pm 31.8 26.6 0.0 13 15.5 SSW 17 28 9 15 1015.2 1014.2 0.0
27/05:00pm 31.1 26.1 1.4 15 14.8 SSW 17 24 9 13 1015.3 1014.3 0.0
27/04:30pm 32.2 26.6 1.3 14 15.5 S 20 30 11 16 1015.6 1014.6 0.0
27/04:00pm 31.8 26.2 1.0 14 15.3 S 20 26 11 14 1015.9 1014.9 0.0
27/03:30pm 31.4 27.2 1.7 15 14.9 SW 13 20 7 11 1016.3 1015.3 0.0
27/03:00pm 31.0 26.0 1.4 15 14.7 S 17 32 9 17 1016.8 1015.9 0.0
27/02:30pm 30.2 24.1 0.7 15 14.4 S 22 33 12 18 1017.1 1016.2 0.0
27/02:00pm 29.9 23.3 -0.5 14 14.5 SSW 24 37 13 20 1017.6 1016.7 0.0
27/01:30pm 29.9 25.3 1.4 16 14.1 SSE 15 30 8 16 1017.8 1016.9 0.0
27/01:00pm 28.9 24.2 0.6 16 13.7 SSE 15 24 8 13 1018.2 1017.3 0.0
27/12:30pm 29.1 22.7 0.7 16 13.8 S 24 35 13 19 1018.6 1017.7 0.0
27/12:00pm 28.0 22.7 3.0 20 12.5 S 20 33 11 18 1019.1 1018.2 0.0
27/11:30am 27.3 22.8 2.4 20 12.3 S 15 30 8 16 1019.6 1018.6 0.0
27/11:00am 26.9 22.2 3.4 22 11.8 S 17 26 9 14 1019.7 1018.7 0.0
27/10:30am 25.9 20.7 3.8 24 11.1 S 20 30 11 16 1019.8 1018.8 0.0
27/10:00am 25.9 21.4 4.4 25 10.9 SSE 17 24 9 13 1019.9 1018.9 0.0
27/09:30am 24.3 19.2 4.1 27 10.1 SSE 20 28 11 15 1020.0 1019.0 0.0
27/09:00am 23.3 18.4 4.3 29 9.4 SE 19 28 10 15 1019.9 1018.9 0.0
27/08:30am 22.0 16.9 4.1 31 8.8 SSE 20 26 11 14 1019.8 1018.8 0.0
27/08:00am 21.0 16.1 4.1 33 8.2 SSE 19 26 10 14 1019.6 1018.6 0.0
27/07:30am 19.3 15.7 3.1 34 7.7 SSE 11 15 6 8 1019.2 1018.3 0.0
27/07:00am 17.2 13.1 2.0 36 6.9 SSE 13 17 7 9 1018.8 1017.9 0.0
27/06:30am 15.8 12.0 1.5 38 6.4 S 11 13 6 7 1018.7 1017.8 0.0
27/06:00am 15.0 11.5 1.5 40 5.9 SSE 9 13 5 7 1018.4 1017.5 0.0
27/05:30am 13.5 10.2 -1.3 36 6.1 SSE 6 7 3 4 1018.1 1017.2 0.0
27/05:00am 15.1 11.4 0.2 36 6.4 S 9 11 5 6 1017.7 1016.8 0.0
27/04:30am 15.9 12.7 0.9 36 6.6 S 7 11 4 6 1017.4 1016.5 0.0
27/04:00am 15.2 11.1 -0.1 35 6.5 S 11 13 6 7 1017.2 1016.3 0.0
27/03:30am 14.8 12.6 -1.3 33 6.7 CALM 0 0 0 0 1017.2 1016.3 0.0
27/03:00am 15.4 12.9 -1.2 32 6.9 SSE 2 6 1 3 1017.2 1016.3 0.0
27/02:30am 18.0 14.3 0.2 30 7.8 S 9 9 5 5 1017.2 1016.3 0.0
27/02:00am 18.4 14.4 0.5 30 8.0 S 11 13 6 7 1017.3 1016.4 0.0
27/01:30am 18.7 15.4 0.3 29 8.2 S 7 9 4 5 1017.7 1016.8 0.0
27/01:00am 19.4 15.7 -0.1 27 8.6 S 9 13 5 7 1017.8 1016.9 0.0
27/12:30am 20.5 16.5 0.4 26 9.1 S 11 13 6 7 1018.0 1017.1 0.0
27/12:00am 21.2 17.2 0.4 25 9.4 S 11 15 6 8 1018.4 1017.5 0.0
 
Date/Time
EDT
Temp
°C
App
Temp
°C
Dew
Point
Rel
Hum
%
Delta-T
°C
Wind Press
QNH
hPa
Press
MSL
hPa
Rain
since 9 am
mm
Dir
 
Spd
km/h
Gust
km/h
Spd
kts
Gust
kts
26/11:30pm 21.0 17.0 0.2 25 9.4 S 11 15 6 8 1018.5 1017.6 0.0
26/11:00pm 21.0 17.0 0.2 25 9.4 S 11 13 6 7 1018.3 1017.4 0.0
26/10:30pm 21.9 18.2 -0.1 23 10.0 S 9 11 5 6 1018.1 1017.2 0.0
26/10:00pm 23.1 19.1 0.2 22 10.5 S 11 13 6 7 1017.8 1016.9 0.0
26/09:30pm 23.5 20.4 1.2 23 10.5 S 7 9 4 5 1017.5 1016.6 0.0
26/09:00pm 25.6 21.1 -0.5 18 12.1 S 13 17 7 9 1017.1 1016.2 0.0
26/08:30pm 26.8 21.8 -1.1 16 12.9 S 15 20 8 11 1016.9 1016.0 0.0
26/08:00pm 27.6 21.3 -1.3 15 13.4 S 22 28 12 15 1016.6 1015.7 0.0
26/07:30pm 28.6 22.5 -2.5 13 14.2 SSW 20 32 11 17 1016.2 1015.2 0.0
26/07:00pm 29.4 22.5 -2.9 12 14.7 SSW 24 30 13 16 1015.8 1014.8 0.0
26/06:30pm 29.6 22.7 -2.8 12 14.8 SW 24 32 13 17 1015.6 1014.6 0.0
26/06:00pm 30.0 24.7 -3.6 11 15.2 S 15 17 8 9 1015.6 1014.6 0.0
26/05:30pm 30.2 24.3 -2.3 12 15.1 SW 19 26 10 14 1015.6 1014.6 0.0
26/05:00pm 29.7 23.4 -3.9 11 15.1 S 20 30 11 16 1015.8 1014.8 0.0
26/04:30pm 30.2 24.5 -3.5 11 15.3 W 17 24 9 13 1015.9 1014.9 0.0
26/04:00pm 30.7 25.5 -3.1 11 15.5 S 15 26 8 14 1016.2 1015.2 0.0
26/03:30pm 29.6 22.6 -3.9 11 15.1 SSW 24 35 13 19 1016.4 1015.5 0.0
26/03:00pm 30.7 25.8 -3.1 11 15.5 SSW 13 26 7 14 1016.8 1015.9 0.0
26/02:30pm 29.5 23.4 -4.0 11 15.0 S 19 39 10 21 1017.2 1016.3 0.0
26/02:00pm 28.0 23.7 -5.2 11 14.4 S 9 20 5 11 1017.4 1016.5 0.0
26/01:30pm 28.8 22.6 -3.4 12 14.5 S 20 30 11 16 1017.7 1016.8 0.0
26/01:00pm 27.9 23.2 -2.0 14 13.7 SW 13 24 7 13 1018.1 1017.2 0.0
26/12:30pm 28.0 22.9 0.7 17 13.1 S 17 28 9 15 1018.5 1017.6 0.0
26/12:00pm 26.0 21.0 -0.9 17 12.4 SW 15 22 8 12 1018.9 1018.0 0.0
26/11:30am 25.2 21.1 0.0 19 11.7 SSW 11 20 6 11 1019.2 1018.3 0.0
26/11:00am 25.9 20.9 1.2 20 11.8 SSE 17 22 9 12 1019.3 1018.4 0.0
26/10:30am 24.8 20.5 1.0 21 11.3 SSE 13 24 7 13 1019.4 1018.5 0.0
26/10:00am 23.8 19.1 0.8 22 10.7 S 15 22 8 12 1019.7 1018.7 0.0
26/09:30am 22.6 17.6 1.6 25 9.9 SSE 17 20 9 11 1019.7 1018.7 0.0
26/09:00am 21.6 16.2 1.3 26 9.4 SSE 19 24 10 13 1019.9 1018.9 0.0
26/08:30am 20.6 15.0 1.5 28 8.8 ESE 20 22 11 12 1019.6 1018.6 0.0
26/08:00am 19.4 14.9 1.9 31 8.1 SE 15 20 8 11 1019.4 1018.5 0.0
26/07:30am 16.7 13.1 0.8 34 7.0 SE 9 17 5 9 1019.1 1018.2 0.0
26/07:00am 12.9 10.0 -1.1 38 5.7 SSE 4 7 2 4 1018.7 1017.8 0.0
26/06:30am 11.2 8.6 -1.5 41 5.1 SE 2 9 1 5 1018.5 1017.6 0.0
26/06:00am 10.7 7.3 -2.3 40 5.0 SSE 6 7 3 4 1018.3 1017.4 0.0
26/05:30am 11.0 8.7 -2.4 39 5.2 CALM 0 0 0 0 1018.1 1017.2 0.0
26/05:00am 11.5 9.2 -2.3 38 5.4 CALM 0 0 0 0 1017.9 1017.0 0.0
26/04:30am 12.8 10.6 -1.5 37 5.8 CALM 0 0 0 0 1017.9 1017.0 0.0
26/04:00am 13.2 10.9 -2.3 34 6.2 CALM 0 0 0 0 1017.9 1017.0 0.0
26/03:30am 13.5 10.9 -2.0 34 6.2 SSE 2 7 1 4 1017.9 1017.0 0.0
26/03:00am 15.5 12.0 -1.5 31 7.1 S 7 9 4 5 1017.9 1017.0 0.0
26/02:30am 16.2 12.3 -1.4 30 7.4 S 9 11 5 6 1018.0 1017.1 0.0
26/02:00am 16.7 12.4 -1.9 28 7.7 S 11 13 6 7 1018.3 1017.4 0.0
26/01:30am 17.8 13.5 -1.4 27 8.2 S 11 13 6 7 1018.4 1017.5 0.0
26/01:00am 18.3 13.6 -1.5 26 8.4 S 13 13 7 7 1018.8 1017.9 0.0
26/12:30am 19.5 14.8 -1.6 24 9.1 S 13 17 7 9 1019.1 1018.2 0.0
26/12:00am 20.1 14.7 -1.7 23 9.4 S 17 20 9 11 1019.3 1018.4 0.0
 
Date/Time
EDT
Temp
°C
App
Temp
°C
Dew
Point
Rel
Hum
%
Delta-T
°C
Wind Press
QNH
hPa
Press
MSL
hPa
Rain
since 9 am
mm
Dir
 
Spd
km/h
Gust
km/h
Spd
kts
Gust
kts
25/11:30pm 20.4 15.8 -1.4 23 9.5 S 13 15 7 8 1019.0 1018.1 0.0
25/11:00pm 21.4 16.4 -1.2 22 10.0 S 15 20 8 11 1018.9 1018.0 0.0
25/10:30pm 22.3 17.2 0.8 24 9.9 S 17 20 9 11 1018.8 1017.9 0.0
25/10:00pm 21.9 17.6 1.0 25 9.6 S 13 15 7 8 1018.5 1017.6 0.0
25/09:30pm 22.7 18.3 0.5 23 10.2 S 13 17 7 9 1018.1 1017.2 0.0
25/09:00pm 23.5 18.8 1.2 23 10.5 SSW 15 19 8 10 1017.8 1016.9 0.0
25/08:30pm 24.6 19.9 0.8 21 11.2 S 15 19 8 10 1017.5 1016.6 0.0
25/08:00pm 25.5 20.3 0.2 19 11.8 S 17 20 9 11 1017.3 1016.4 0.0
25/07:30pm 26.4 20.5 -0.6 17 12.6 S 20 24 11 13 1016.9 1016.0 0.0
25/07:00pm 27.1 22.5 -0.9 16 13.0 SSE 13 17 7 9 1016.6 1015.7 0.0
25/06:30pm 27.5 21.5 -1.4 15 13.4 SSW 20 30 11 16 1016.4 1015.5 0.0
25/06:00pm 27.6 21.8 -1.3 15 13.4 S 19 30 10 16 1016.4 1015.5 0.0
25/05:30pm 27.5 21.7 -1.4 15 13.4 S 19 28 10 15 1016.5 1015.6 0.0
25/05:00pm 27.4 21.3 -2.4 14 13.5 SSW 20 28 11 15 1016.6 1015.7 0.0
25/04:30pm 27.8 21.7 -2.1 14 13.7 SSW 20 28 11 15 1016.7 1015.8 0.0
25/04:00pm 27.4 23.1 -1.5 15 13.3 SSE 11 15 6 8 1017.0 1016.1 0.0
25/03:30pm 28.3 23.9 0.1 16 13.5 SE 13 20 7 11 1017.1 1016.2 0.0
25/03:00pm 27.0 20.4 -0.1 17 12.7 S 24 32 13 17 1017.5 1016.6 0.0
25/02:30pm 26.3 19.7 -0.7 17 12.5 S 24 35 13 19 1017.9 1017.0 0.0
25/02:00pm 25.4 20.1 -0.6 18 12.0 SW 17 24 9 13 1018.1 1017.2 0.0
25/01:30pm 24.5 19.3 0.1 20 11.3 S 17 32 9 17 1018.5 1017.6 0.0
25/01:00pm 24.3 20.4 3.6 26 10.2 S 13 24 7 13 1018.7 1017.8 0.0

Other Formats:

Comma delimited format used in spreadsheet applications
http://www.bom.gov.au/fwo/IDN60801/IDN60801.94710.axf

JavaScript Object Notation format (JSON) in row-major order
http://www.bom.gov.au/fwo/IDN60801/IDN60801.94710.json